createdAt,value
2022-11-02T11:02:30.523Z,16.72
2022-11-02T11:06:37.934Z,16.74
2022-11-02T11:10:44.208Z,16.35
2022-11-02T11:19:44.154Z,16.68
2022-11-02T11:23:48.740Z,16.32
2022-11-02T11:27:52.412Z,15.87
2022-11-02T11:31:55.630Z,16.11
2022-11-02T11:35:58.862Z,15.73
2022-11-02T11:40:05.131Z,15.91
2022-11-02T11:44:14.480Z,15.12
2022-11-02T11:48:26.067Z,15.18
2022-11-02T11:52:32.039Z,15.37
2022-11-02T11:56:37.344Z,15.37
2022-11-02T12:00:40.639Z,16.71
2022-11-02T12:04:43.981Z,16.35
2022-11-02T12:08:52.292Z,15.78
2022-11-02T12:13:02.640Z,16.51
2022-11-02T12:17:15.880Z,17.68
2022-11-02T12:21:38.125Z,16.91
2022-11-02T12:25:45.749Z,15.87
2022-11-02T12:29:58.694Z,16.14
2022-11-02T12:34:08.159Z,17.26
2022-11-02T12:38:18.321Z,16.72
2022-11-02T12:42:27.056Z,17.03
2022-11-02T12:46:38.320Z,17.75
2022-11-02T12:50:52.957Z,18.68
2022-11-02T12:54:57.744Z,18.63
2022-11-02T12:59:01.444Z,17.58
2022-11-02T13:03:09.831Z,16.75
2022-11-02T13:07:14.917Z,18.42
2022-11-02T13:11:20.918Z,17.41
2022-11-02T13:15:26.575Z,18.17
2022-11-02T13:19:35.275Z,16.94
2022-11-02T13:23:40.762Z,16.78
2022-11-02T13:27:48.365Z,17.33
2022-11-02T13:31:53.830Z,17.55
2022-11-02T13:35:58.419Z,17.76
2022-11-02T13:40:04.712Z,17.89
2022-11-02T13:44:22.775Z,17.49
2022-11-02T13:48:44.684Z,17.12
2022-11-02T13:52:53.056Z,17.29
2022-11-02T13:56:59.119Z,17.57
2022-11-02T14:01:03.321Z,18.07
2022-11-02T14:05:06.888Z,17.73
2022-11-02T14:09:20.078Z,17.37
2022-11-02T14:13:47.659Z,17.00
2022-11-02T14:18:09.031Z,17.28
2022-11-02T14:22:15.419Z,17.02
2022-11-02T14:26:34.667Z,16.44
2022-11-02T14:30:48.878Z,16.48
2022-11-02T14:35:06.630Z,16.06
2022-11-02T14:39:20.191Z,15.62
2022-11-02T14:43:57.291Z,15.67
2022-11-02T14:48:05.311Z,15.34
2022-11-02T14:52:23.155Z,15.40
2022-11-02T14:56:46.773Z,15.48
2022-11-02T15:01:00.832Z,15.19
2022-11-02T15:05:08.000Z,15.02
2022-11-02T15:09:12.104Z,15.10
2022-11-02T15:13:35.397Z,14.98
2022-11-02T15:18:00.646Z,14.76
2022-11-02T15:22:43.596Z,14.75
2022-11-02T15:26:50.915Z,14.61
2022-11-02T15:30:56.990Z,14.30
2022-11-02T15:35:02.193Z,14.32
2022-11-02T15:39:08.100Z,14.30
2022-11-02T15:43:19.697Z,14.18
2022-11-02T15:47:29.720Z,14.09
2022-11-02T15:51:39.186Z,13.98
2022-11-02T15:55:47.497Z,13.80
2022-11-02T16:00:01.086Z,13.59
2022-11-02T16:04:05.211Z,13.42
2022-11-02T16:08:22.442Z,13.32
2022-11-02T16:12:26.083Z,13.26
2022-11-02T16:16:35.498Z,13.16
2022-11-02T16:20:40.449Z,13.02
2022-11-02T16:24:47.696Z,12.99
2022-11-02T16:28:52.278Z,12.89
2022-11-02T16:33:01.722Z,12.79
2022-11-02T16:37:09.129Z,12.60
2022-11-02T16:41:16.462Z,12.44
2022-11-02T16:45:42.157Z,12.35
2022-11-02T16:49:59.518Z,12.23
2022-11-02T16:54:18.535Z,12.25
2022-11-02T16:58:25.460Z,12.15
2022-11-02T17:02:37.692Z,12.14
2022-11-02T17:06:42.554Z,12.04
2022-11-02T17:10:46.448Z,12.19
2022-11-02T17:14:51.889Z,12.18
2022-11-02T17:18:55.594Z,12.13
2022-11-02T17:23:01.638Z,12.21
2022-11-02T17:27:19.349Z,12.21
2022-11-02T17:31:27.259Z,12.15
2022-11-02T17:35:30.992Z,12.12
2022-11-02T17:39:35.142Z,12.00
2022-11-02T17:43:38.903Z,11.99
2022-11-02T17:47:44.696Z,11.88
2022-11-02T17:51:50.294Z,11.83
2022-11-02T17:55:54.857Z,11.71
2022-11-02T17:59:58.270Z,11.83
2022-11-02T18:04:03.132Z,11.91
2022-11-02T18:08:09.063Z,11.75
2022-11-02T18:12:14.336Z,11.71
2022-11-02T18:16:18.058Z,11.84
2022-11-02T18:20:24.157Z,11.79
2022-11-02T18:24:28.452Z,11.76
2022-11-02T18:28:32.238Z,11.73
2022-11-02T18:32:38.155Z,11.62
2022-11-02T18:36:43.389Z,11.62
2022-11-02T18:40:48.245Z,11.49
2022-11-02T18:44:52.017Z,11.53
2022-11-02T18:48:56.303Z,11.55
2022-11-02T18:53:02.370Z,11.49
2022-11-02T18:57:06.169Z,11.53
2022-11-02T19:01:15.403Z,11.55
2022-11-02T19:05:37.774Z,11.40
2022-11-02T19:10:03.929Z,11.31
2022-11-02T19:14:22.522Z,11.31
2022-11-02T19:18:26.193Z,11.26
2022-11-02T19:22:30.131Z,11.19
2022-11-02T19:26:35.955Z,11.13
2022-11-02T19:30:40.025Z,10.98
2022-11-02T19:34:46.681Z,10.87
2022-11-02T19:38:50.285Z,10.81
2022-11-02T19:42:55.264Z,10.75
2022-11-02T19:46:59.233Z,10.69
2022-11-02T19:51:07.493Z,10.63
2022-11-02T19:55:11.355Z,10.66
2022-11-02T19:59:16.470Z,10.53
2022-11-02T20:03:20.487Z,10.49
2022-11-02T20:07:24.584Z,10.57
2022-11-02T20:11:28.911Z,10.60
2022-11-02T20:15:37.974Z,10.65
2022-11-02T20:19:44.509Z,10.80
2022-11-02T20:23:50.334Z,10.82
2022-11-02T20:27:54.269Z,10.83
2022-11-02T20:32:00.445Z,10.82
2022-11-02T20:36:06.894Z,10.88
2022-11-02T20:40:11.745Z,10.92
2022-11-02T20:44:17.866Z,10.96
2022-11-02T20:52:31.538Z,10.96
2022-11-02T20:56:35.061Z,11.00
2022-11-02T21:00:38.716Z,11.00
2022-11-02T21:04:43.708Z,10.98
2022-11-02T21:08:47.680Z,10.99
2022-11-02T21:13:08.866Z,10.99
2022-11-02T21:17:12.810Z,11.02
2022-11-02T21:21:20.717Z,11.02
2022-11-02T21:25:25.398Z,10.98
2022-11-02T21:29:29.106Z,10.87
2022-11-02T21:33:33.734Z,10.73
2022-11-02T21:37:38.629Z,10.58
2022-11-02T21:41:42.011Z,10.48
2022-11-02T21:45:52.966Z,10.45
2022-11-02T21:49:56.425Z,10.44
2022-11-02T21:54:01.380Z,10.44
2022-11-02T21:58:04.935Z,10.42
2022-11-02T22:02:09.713Z,10.39
2022-11-02T22:06:13.453Z,10.41
2022-11-02T22:10:18.343Z,10.38
2022-11-02T22:14:21.767Z,10.29
2022-11-02T22:18:25.218Z,10.27
2022-11-02T22:22:28.849Z,10.18
2022-11-02T22:26:35.455Z,10.15
2022-11-02T22:30:38.857Z,10.11
2022-11-02T22:34:43.631Z,10.12
2022-11-02T22:38:55.840Z,10.07
2022-11-02T22:43:01.100Z,10.02
2022-11-02T22:47:04.574Z,10.02
2022-11-02T22:51:08.583Z,10.00
2022-11-02T22:55:11.945Z,9.97
2022-11-02T22:59:17.088Z,9.97
2022-11-02T23:03:20.694Z,9.93
2022-11-02T23:07:24.304Z,9.94
2022-11-02T23:11:30.295Z,9.87
2022-11-02T23:15:35.108Z,9.85
2022-11-02T23:19:38.478Z,9.81
2022-11-02T23:23:58.902Z,9.79
2022-11-02T23:28:19.441Z,9.77
2022-11-02T23:32:27.279Z,9.75
2022-11-02T23:36:30.616Z,9.75
2022-11-02T23:40:34.340Z,9.72
2022-11-02T23:44:37.683Z,9.69
2022-11-02T23:48:46.037Z,9.71
2022-11-02T23:53:10.197Z,9.70
2022-11-02T23:57:13.844Z,9.66
